sensor_id;sensor_type;location;lat;lon;timestamp;P1;durP1;ratioP1;P2;durP2;ratioP2
15228;SDS011;7717;47.792;12.076;2023-04-07T00:00:20;8.33;;;6.80;;
15228;SDS011;7717;47.792;12.076;2023-04-07T00:02:46;9.07;;;5.90;;
15228;SDS011;7717;47.792;12.076;2023-04-07T00:05:12;10.53;;;6.93;;
15228;SDS011;7717;47.792;12.076;2023-04-07T00:07:38;9.53;;;6.77;;
15228;SDS011;7717;47.792;12.076;2023-04-07T00:10:04;10.00;;;5.70;;
15228;SDS011;7717;47.792;12.076;2023-04-07T00:12:30;8.70;;;7.30;;
15228;SDS011;7717;47.792;12.076;2023-04-07T00:14:58;10.10;;;6.97;;
15228;SDS011;7717;47.792;12.076;2023-04-07T00:17:24;7.87;;;6.33;;
15228;SDS011;7717;47.792;12.076;2023-04-07T00:19:49;10.57;;;6.77;;
15228;SDS011;7717;47.792;12.076;2023-04-07T00:22:14;8.00;;;7.00;;
15228;SDS011;7717;47.792;12.076;2023-04-07T00:24:40;11.67;;;6.87;;
15228;SDS011;7717;47.792;12.076;2023-04-07T00:27:05;7.90;;;6.93;;
15228;SDS011;7717;47.792;12.076;2023-04-07T00:29:30;9.07;;;6.20;;
15228;SDS011;7717;47.792;12.076;2023-04-07T00:31:56;8.40;;;6.47;;
15228;SDS011;7717;47.792;12.076;2023-04-07T00:34:21;11.13;;;7.93;;
15228;SDS011;7717;47.792;12.076;2023-04-07T00:36:47;9.23;;;7.03;;
15228;SDS011;7717;47.792;12.076;2023-04-07T00:39:16;8.60;;;7.17;;
15228;SDS011;7717;47.792;12.076;2023-04-07T00:41:42;9.27;;;7.03;;
15228;SDS011;7717;47.792;12.076;2023-04-07T00:44:09;8.97;;;7.83;;
15228;SDS011;7717;47.792;12.076;2023-04-07T00:46:34;8.10;;;7.27;;
15228;SDS011;7717;47.792;12.076;2023-04-07T00:49:00;10.50;;;7.57;;
15228;SDS011;7717;47.792;12.076;2023-04-07T00:51:25;7.77;;;6.77;;
15228;SDS011;7717;47.792;12.076;2023-04-07T00:53:51;8.70;;;6.57;;
15228;SDS011;7717;47.792;12.076;2023-04-07T00:56:16;9.80;;;6.33;;
15228;SDS011;7717;47.792;12.076;2023-04-07T00:58:42;8.20;;;6.63;;
15228;SDS011;7717;47.792;12.076;2023-04-07T01:01:08;8.60;;;5.93;;
15228;SDS011;7717;47.792;12.076;2023-04-07T01:03:52;7.60;;;5.87;;
15228;SDS011;7717;47.792;12.076;2023-04-07T01:06:27;10.80;;;6.07;;
15228;SDS011;7717;47.792;12.076;2023-04-07T01:09:18;9.67;;;5.63;;
15228;SDS011;7717;47.792;12.076;2023-04-07T01:12:02;11.97;;;6.57;;
15228;SDS011;7717;47.792;12.076;2023-04-07T01:14:39;7.30;;;5.83;;
15228;SDS011;7717;47.792;12.076;2023-04-07T01:17:10;7.50;;;6.43;;
15228;SDS011;7717;47.792;12.076;2023-04-07T01:19:39;8.20;;;6.43;;
15228;SDS011;7717;47.792;12.076;2023-04-07T01:22:11;7.80;;;6.87;;
15228;SDS011;7717;47.792;12.076;2023-04-07T01:27:54;8.33;;;6.63;;
15228;SDS011;7717;47.792;12.076;2023-04-07T01:30:35;7.77;;;6.10;;
15228;SDS011;7717;47.792;12.076;2023-04-07T01:33:03;6.77;;;5.50;;
15228;SDS011;7717;47.792;12.076;2023-04-07T01:35:31;7.67;;;6.70;;
15228;SDS011;7717;47.792;12.076;2023-04-07T01:37:58;7.97;;;6.20;;
15228;SDS011;7717;47.792;12.076;2023-04-07T01:40:24;7.60;;;6.33;;
15228;SDS011;7717;47.792;12.076;2023-04-07T01:42:51;8.17;;;6.33;;
15228;SDS011;7717;47.792;12.076;2023-04-07T01:45:18;7.63;;;6.00;;
15228;SDS011;7717;47.792;12.076;2023-04-07T01:47:44;8.10;;;5.63;;
15228;SDS011;7717;47.792;12.076;2023-04-07T01:50:10;9.43;;;6.93;;
15228;SDS011;7717;47.792;12.076;2023-04-07T01:52:37;8.23;;;6.47;;
15228;SDS011;7717;47.792;12.076;2023-04-07T01:55:04;8.77;;;6.63;;
15228;SDS011;7717;47.792;12.076;2023-04-07T01:57:31;7.83;;;6.27;;
15228;SDS011;7717;47.792;12.076;2023-04-07T01:59:56;10.27;;;7.17;;
15228;SDS011;7717;47.792;12.076;2023-04-07T02:02:22;9.43;;;7.60;;
15228;SDS011;7717;47.792;12.076;2023-04-07T02:04:54;8.07;;;6.50;;
15228;SDS011;7717;47.792;12.076;2023-04-07T02:10:20;9.20;;;6.90;;
15228;SDS011;7717;47.792;12.076;2023-04-07T02:12:48;8.17;;;6.50;;
15228;SDS011;7717;47.792;12.076;2023-04-07T02:15:14;11.80;;;7.53;;
15228;SDS011;7717;47.792;12.076;2023-04-07T02:17:41;9.70;;;7.53;;
15228;SDS011;7717;47.792;12.076;2023-04-07T02:20:10;8.27;;;6.50;;
15228;SDS011;7717;47.792;12.076;2023-04-07T02:22:37;6.83;;;6.13;;
15228;SDS011;7717;47.792;12.076;2023-04-07T02:25:19;7.73;;;6.93;;
15228;SDS011;7717;47.792;12.076;2023-04-07T02:27:44;9.53;;;7.40;;
15228;SDS011;7717;47.792;12.076;2023-04-07T02:30:10;12.20;;;8.03;;
15228;SDS011;7717;47.792;12.076;2023-04-07T02:32:36;9.10;;;7.40;;
15228;SDS011;7717;47.792;12.076;2023-04-07T02:35:01;10.23;;;6.57;;
15228;SDS011;7717;47.792;12.076;2023-04-07T02:37:26;7.97;;;6.67;;
15228;SDS011;7717;47.792;12.076;2023-04-07T02:39:51;8.93;;;6.20;;
15228;SDS011;7717;47.792;12.076;2023-04-07T02:42:17;9.67;;;6.53;;
15228;SDS011;7717;47.792;12.076;2023-04-07T02:44:42;8.93;;;6.63;;
15228;SDS011;7717;47.792;12.076;2023-04-07T02:47:07;8.07;;;7.00;;
15228;SDS011;7717;47.792;12.076;2023-04-07T02:49:34;9.97;;;7.13;;
15228;SDS011;7717;47.792;12.076;2023-04-07T02:51:59;7.07;;;5.87;;
15228;SDS011;7717;47.792;12.076;2023-04-07T02:54:25;8.93;;;6.07;;
15228;SDS011;7717;47.792;12.076;2023-04-07T02:56:50;9.87;;;7.20;;
15228;SDS011;7717;47.792;12.076;2023-04-07T02:59:15;9.57;;;6.87;;
15228;SDS011;7717;47.792;12.076;2023-04-07T03:01:41;7.37;;;5.53;;
15228;SDS011;7717;47.792;12.076;2023-04-07T03:04:06;8.87;;;6.03;;
15228;SDS011;7717;47.792;12.076;2023-04-07T03:06:31;8.60;;;6.50;;
15228;SDS011;7717;47.792;12.076;2023-04-07T03:08:57;7.00;;;6.20;;
15228;SDS011;7717;47.792;12.076;2023-04-07T03:11:22;9.40;;;7.73;;
15228;SDS011;7717;47.792;12.076;2023-04-07T03:13:48;9.40;;;7.27;;
15228;SDS011;7717;47.792;12.076;2023-04-07T03:16:13;8.33;;;6.40;;
15228;SDS011;7717;47.792;12.076;2023-04-07T03:18:39;8.60;;;5.77;;
15228;SDS011;7717;47.792;12.076;2023-04-07T03:21:04;8.43;;;6.37;;
15228;SDS011;7717;47.792;12.076;2023-04-07T03:23:30;10.13;;;6.67;;
15228;SDS011;7717;47.792;12.076;2023-04-07T03:25:55;10.53;;;6.80;;
15228;SDS011;7717;47.792;12.076;2023-04-07T03:28:21;6.80;;;6.10;;
15228;SDS011;7717;47.792;12.076;2023-04-07T03:30:47;9.67;;;7.57;;
15228;SDS011;7717;47.792;12.076;2023-04-07T03:33:12;8.50;;;6.77;;
15228;SDS011;7717;47.792;12.076;2023-04-07T03:35:38;9.97;;;6.60;;
15228;SDS011;7717;47.792;12.076;2023-04-07T03:38:03;9.20;;;6.87;;
15228;SDS011;7717;47.792;12.076;2023-04-07T03:40:28;8.60;;;7.07;;
15228;SDS011;7717;47.792;12.076;2023-04-07T03:42:54;7.60;;;6.20;;
15228;SDS011;7717;47.792;12.076;2023-04-07T03:45:19;9.83;;;7.30;;
15228;SDS011;7717;47.792;12.076;2023-04-07T03:47:44;8.57;;;6.77;;
15228;SDS011;7717;47.792;12.076;2023-04-07T03:50:10;9.03;;;6.37;;
15228;SDS011;7717;47.792;12.076;2023-04-07T03:52:35;9.00;;;6.40;;
15228;SDS011;7717;47.792;12.076;2023-04-07T03:55:01;8.23;;;6.20;;
15228;SDS011;7717;47.792;12.076;2023-04-07T03:57:26;7.63;;;6.13;;
15228;SDS011;7717;47.792;12.076;2023-04-07T03:59:52;8.57;;;6.57;;
15228;SDS011;7717;47.792;12.076;2023-04-07T04:02:20;7.93;;;6.53;;
15228;SDS011;7717;47.792;12.076;2023-04-07T04:04:45;8.80;;;6.67;;
15228;SDS011;7717;47.792;12.076;2023-04-07T04:07:10;7.37;;;6.30;;
15228;SDS011;7717;47.792;12.076;2023-04-07T04:09:36;12.83;;;7.70;;
15228;SDS011;7717;47.792;12.076;2023-04-07T04:12:01;7.03;;;6.10;;
15228;SDS011;7717;47.792;12.076;2023-04-07T04:14:27;7.77;;;6.17;;
15228;SDS011;7717;47.792;12.076;2023-04-07T04:16:52;8.40;;;6.60;;
15228;SDS011;7717;47.792;12.076;2023-04-07T04:19:18;7.83;;;5.97;;
15228;SDS011;7717;47.792;12.076;2023-04-07T04:21:44;9.00;;;6.73;;
15228;SDS011;7717;47.792;12.076;2023-04-07T04:24:10;9.40;;;6.37;;
15228;SDS011;7717;47.792;12.076;2023-04-07T04:26:35;6.40;;;5.70;;
15228;SDS011;7717;47.792;12.076;2023-04-07T04:29:01;8.57;;;6.53;;
15228;SDS011;7717;47.792;12.076;2023-04-07T04:31:27;8.50;;;6.50;;
15228;SDS011;7717;47.792;12.076;2023-04-07T04:33:52;6.83;;;5.90;;
15228;SDS011;7717;47.792;12.076;2023-04-07T04:36:18;7.37;;;6.63;;
15228;SDS011;7717;47.792;12.076;2023-04-07T04:38:43;8.93;;;6.40;;
15228;SDS011;7717;47.792;12.076;2023-04-07T04:41:09;7.30;;;6.17;;
15228;SDS011;7717;47.792;12.076;2023-04-07T04:43:34;10.40;;;6.20;;
15228;SDS011;7717;47.792;12.076;2023-04-07T04:46:00;7.50;;;6.30;;
15228;SDS011;7717;47.792;12.076;2023-04-07T04:48:25;7.70;;;6.30;;
15228;SDS011;7717;47.792;12.076;2023-04-07T04:50:51;8.67;;;6.27;;
15228;SDS011;7717;47.792;12.076;2023-04-07T04:53:16;10.13;;;7.90;;
15228;SDS011;7717;47.792;12.076;2023-04-07T04:55:42;10.40;;;8.60;;
15228;SDS011;7717;47.792;12.076;2023-04-07T04:58:11;10.30;;;9.13;;
15228;SDS011;7717;47.792;12.076;2023-04-07T05:00:36;8.43;;;7.63;;
15228;SDS011;7717;47.792;12.076;2023-04-07T05:03:02;8.27;;;6.97;;
15228;SDS011;7717;47.792;12.076;2023-04-07T05:05:28;7.87;;;6.30;;
15228;SDS011;7717;47.792;12.076;2023-04-07T05:07:53;6.80;;;6.10;;
15228;SDS011;7717;47.792;12.076;2023-04-07T05:10:19;7.93;;;6.77;;
15228;SDS011;7717;47.792;12.076;2023-04-07T05:12:44;6.80;;;6.13;;
15228;SDS011;7717;47.792;12.076;2023-04-07T05:15:09;8.47;;;5.90;;
15228;SDS011;7717;47.792;12.076;2023-04-07T05:17:35;6.87;;;6.10;;
15228;SDS011;7717;47.792;12.076;2023-04-07T05:20:01;12.93;;;10.63;;
15228;SDS011;7717;47.792;12.076;2023-04-07T05:22:27;10.53;;;8.83;;
15228;SDS011;7717;47.792;12.076;2023-04-07T05:24:52;10.03;;;8.33;;
15228;SDS011;7717;47.792;12.076;2023-04-07T05:27:17;10.87;;;8.60;;
15228;SDS011;7717;47.792;12.076;2023-04-07T05:29:43;11.33;;;10.10;;
15228;SDS011;7717;47.792;12.076;2023-04-07T05:32:08;10.70;;;9.00;;
15228;SDS011;7717;47.792;12.076;2023-04-07T05:34:34;13.07;;;8.23;;
15228;SDS011;7717;47.792;12.076;2023-04-07T05:36:59;11.40;;;8.10;;
15228;SDS011;7717;47.792;12.076;2023-04-07T05:39:24;11.90;;;10.27;;
15228;SDS011;7717;47.792;12.076;2023-04-07T05:41:50;15.33;;;11.53;;
15228;SDS011;7717;47.792;12.076;2023-04-07T05:44:16;13.37;;;11.00;;
15228;SDS011;7717;47.792;12.076;2023-04-07T05:46:41;12.73;;;9.73;;
15228;SDS011;7717;47.792;12.076;2023-04-07T05:49:06;8.17;;;7.03;;
15228;SDS011;7717;47.792;12.076;2023-04-07T05:51:32;7.07;;;6.33;;
15228;SDS011;7717;47.792;12.076;2023-04-07T05:53:59;10.73;;;6.23;;
15228;SDS011;7717;47.792;12.076;2023-04-07T05:56:27;7.20;;;6.50;;
15228;SDS011;7717;47.792;12.076;2023-04-07T05:58:52;7.93;;;6.50;;
15228;SDS011;7717;47.792;12.076;2023-04-07T06:01:18;7.87;;;5.37;;
15228;SDS011;7717;47.792;12.076;2023-04-07T06:03:43;7.30;;;6.20;;
15228;SDS011;7717;47.792;12.076;2023-04-07T06:06:08;8.70;;;5.87;;
15228;SDS011;7717;47.792;12.076;2023-04-07T06:08:34;13.80;;;10.37;;
15228;SDS011;7717;47.792;12.076;2023-04-07T06:11:00;8.40;;;7.43;;
15228;SDS011;7717;47.792;12.076;2023-04-07T06:13:25;10.97;;;8.43;;
15228;SDS011;7717;47.792;12.076;2023-04-07T06:15:51;10.73;;;8.53;;
15228;SDS011;7717;47.792;12.076;2023-04-07T06:18:19;24.50;;;18.27;;
15228;SDS011;7717;47.792;12.076;2023-04-07T06:20:44;18.10;;;14.33;;
15228;SDS011;7717;47.792;12.076;2023-04-07T06:23:10;14.67;;;11.33;;
15228;SDS011;7717;47.792;12.076;2023-04-07T06:25:35;16.93;;;12.33;;
15228;SDS011;7717;47.792;12.076;2023-04-07T06:28:00;15.93;;;13.30;;
15228;SDS011;7717;47.792;12.076;2023-04-07T06:30:26;15.57;;;11.30;;
15228;SDS011;7717;47.792;12.076;2023-04-07T06:32:51;12.70;;;10.37;;
15228;SDS011;7717;47.792;12.076;2023-04-07T06:35:17;13.10;;;11.10;;
15228;SDS011;7717;47.792;12.076;2023-04-07T06:37:42;19.07;;;13.47;;
15228;SDS011;7717;47.792;12.076;2023-04-07T06:40:07;10.07;;;9.07;;
15228;SDS011;7717;47.792;12.076;2023-04-07T06:42:33;9.47;;;8.03;;
15228;SDS011;7717;47.792;12.076;2023-04-07T06:44:58;13.27;;;8.40;;
15228;SDS011;7717;47.792;12.076;2023-04-07T06:47:24;8.63;;;7.23;;
15228;SDS011;7717;47.792;12.076;2023-04-07T06:49:49;8.20;;;6.63;;
15228;SDS011;7717;47.792;12.076;2023-04-07T06:52:15;10.33;;;7.40;;
15228;SDS011;7717;47.792;12.076;2023-04-07T06:54:40;7.97;;;7.23;;
15228;SDS011;7717;47.792;12.076;2023-04-07T06:57:05;8.20;;;7.30;;
15228;SDS011;7717;47.792;12.076;2023-04-07T06:59:35;9.07;;;7.63;;
15228;SDS011;7717;47.792;12.076;2023-04-07T07:02:04;12.90;;;9.90;;
15228;SDS011;7717;47.792;12.076;2023-04-07T07:04:31;13.30;;;10.17;;
15228;SDS011;7717;47.792;12.076;2023-04-07T07:06:57;10.40;;;7.67;;
15228;SDS011;7717;47.792;12.076;2023-04-07T07:09:22;8.70;;;7.00;;
15228;SDS011;7717;47.792;12.076;2023-04-07T07:11:47;9.90;;;6.77;;
15228;SDS011;7717;47.792;12.076;2023-04-07T07:14:12;8.80;;;7.80;;
15228;SDS011;7717;47.792;12.076;2023-04-07T07:16:38;14.17;;;9.87;;
15228;SDS011;7717;47.792;12.076;2023-04-07T07:19:06;9.40;;;7.87;;
15228;SDS011;7717;47.792;12.076;2023-04-07T07:21:31;22.70;;;12.30;;
15228;SDS011;7717;47.792;12.076;2023-04-07T07:23:57;10.53;;;8.50;;
15228;SDS011;7717;47.792;12.076;2023-04-07T07:26:22;8.27;;;7.33;;
15228;SDS011;7717;47.792;12.076;2023-04-07T07:28:47;9.97;;;8.47;;
15228;SDS011;7717;47.792;12.076;2023-04-07T07:31:13;8.50;;;7.13;;
15228;SDS011;7717;47.792;12.076;2023-04-07T07:33:40;8.17;;;7.37;;
15228;SDS011;7717;47.792;12.076;2023-04-07T07:36:07;7.53;;;6.73;;
15228;SDS011;7717;47.792;12.076;2023-04-07T07:38:33;8.93;;;6.03;;
15228;SDS011;7717;47.792;12.076;2023-04-07T07:40:59;8.33;;;6.87;;
15228;SDS011;7717;47.792;12.076;2023-04-07T07:43:25;8.03;;;6.83;;
15228;SDS011;7717;47.792;12.076;2023-04-07T07:45:50;6.97;;;5.93;;
15228;SDS011;7717;47.792;12.076;2023-04-07T07:48:15;6.80;;;6.17;;
15228;SDS011;7717;47.792;12.076;2023-04-07T07:50:41;7.00;;;6.00;;
15228;SDS011;7717;47.792;12.076;2023-04-07T07:53:08;6.67;;;5.97;;
15228;SDS011;7717;47.792;12.076;2023-04-07T07:55:34;6.93;;;4.97;;
15228;SDS011;7717;47.792;12.076;2023-04-07T07:57:59;6.70;;;6.00;;
15228;SDS011;7717;47.792;12.076;2023-04-07T08:00:25;7.97;;;6.53;;
15228;SDS011;7717;47.792;12.076;2023-04-07T08:02:50;7.40;;;6.40;;
15228;SDS011;7717;47.792;12.076;2023-04-07T08:05:16;6.77;;;5.97;;
15228;SDS011;7717;47.792;12.076;2023-04-07T08:07:41;8.37;;;6.47;;
15228;SDS011;7717;47.792;12.076;2023-04-07T08:10:07;10.63;;;6.93;;
15228;SDS011;7717;47.792;12.076;2023-04-07T08:12:33;13.13;;;9.37;;
15228;SDS011;7717;47.792;12.076;2023-04-07T08:14:58;10.40;;;7.60;;
15228;SDS011;7717;47.792;12.076;2023-04-07T08:17:24;9.10;;;7.67;;
15228;SDS011;7717;47.792;12.076;2023-04-07T08:19:49;8.47;;;7.57;;
15228;SDS011;7717;47.792;12.076;2023-04-07T08:22:15;9.73;;;7.40;;
15228;SDS011;7717;47.792;12.076;2023-04-07T08:24:40;8.60;;;6.97;;
15228;SDS011;7717;47.792;12.076;2023-04-07T08:27:05;7.70;;;6.47;;
15228;SDS011;7717;47.792;12.076;2023-04-07T08:29:31;8.43;;;7.50;;
15228;SDS011;7717;47.792;12.076;2023-04-07T08:31:56;7.00;;;6.27;;
15228;SDS011;7717;47.792;12.076;2023-04-07T08:34:21;6.63;;;6.03;;
15228;SDS011;7717;47.792;12.076;2023-04-07T08:36:47;8.23;;;5.73;;
15228;SDS011;7717;47.792;12.076;2023-04-07T08:39:13;7.17;;;6.10;;
15228;SDS011;7717;47.792;12.076;2023-04-07T08:41:39;8.20;;;7.40;;
15228;SDS011;7717;47.792;12.076;2023-04-07T08:44:08;11.20;;;8.03;;
15228;SDS011;7717;47.792;12.076;2023-04-07T08:46:34;11.10;;;9.33;;
15228;SDS011;7717;47.792;12.076;2023-04-07T08:49:02;11.53;;;8.93;;
15228;SDS011;7717;47.792;12.076;2023-04-07T08:51:34;7.27;;;6.40;;
15228;SDS011;7717;47.792;12.076;2023-04-07T08:54:11;7.73;;;6.63;;
15228;SDS011;7717;47.792;12.076;2023-04-07T08:56:38;8.27;;;7.40;;
15228;SDS011;7717;47.792;12.076;2023-04-07T08:59:06;8.57;;;7.67;;
15228;SDS011;7717;47.792;12.076;2023-04-07T09:01:33;8.17;;;7.03;;
15228;SDS011;7717;47.792;12.076;2023-04-07T09:04:00;9.43;;;7.10;;
15228;SDS011;7717;47.792;12.076;2023-04-07T09:06:28;7.27;;;6.57;;
15228;SDS011;7717;47.792;12.076;2023-04-07T09:08:56;7.80;;;7.00;;
15228;SDS011;7717;47.792;12.076;2023-04-07T09:11:25;7.90;;;6.70;;
15228;SDS011;7717;47.792;12.076;2023-04-07T09:13:51;7.93;;;5.83;;
15228;SDS011;7717;47.792;12.076;2023-04-07T09:16:17;6.27;;;5.67;;
15228;SDS011;7717;47.792;12.076;2023-04-07T09:18:43;6.67;;;6.00;;
15228;SDS011;7717;47.792;12.076;2023-04-07T09:21:08;6.33;;;5.23;;
15228;SDS011;7717;47.792;12.076;2023-04-07T09:23:36;7.07;;;6.10;;
15228;SDS011;7717;47.792;12.076;2023-04-07T09:28:49;7.23;;;5.70;;
15228;SDS011;7717;47.792;12.076;2023-04-07T09:31:17;6.60;;;6.00;;
15228;SDS011;7717;47.792;12.076;2023-04-07T09:33:45;7.20;;;6.00;;
15228;SDS011;7717;47.792;12.076;2023-04-07T09:36:11;8.63;;;5.70;;
15228;SDS011;7717;47.792;12.076;2023-04-07T09:38:37;7.37;;;6.63;;
15228;SDS011;7717;47.792;12.076;2023-04-07T09:41:07;7.70;;;6.43;;
15228;SDS011;7717;47.792;12.076;2023-04-07T09:43:42;7.93;;;5.90;;
15228;SDS011;7717;47.792;12.076;2023-04-07T09:48:37;6.67;;;5.97;;
15228;SDS011;7717;47.792;12.076;2023-04-07T09:51:11;7.20;;;6.47;;
15228;SDS011;7717;47.792;12.076;2023-04-07T09:53:48;9.40;;;6.60;;
15228;SDS011;7717;47.792;12.076;2023-04-07T09:56:15;6.90;;;6.17;;
15228;SDS011;7717;47.792;12.076;2023-04-07T09:58:45;6.67;;;6.07;;
15228;SDS011;7717;47.792;12.076;2023-04-07T10:01:12;7.43;;;6.23;;
15228;SDS011;7717;47.792;12.076;2023-04-07T10:03:42;6.87;;;6.23;;
15228;SDS011;7717;47.792;12.076;2023-04-07T10:06:08;8.13;;;6.27;;
15228;SDS011;7717;47.792;12.076;2023-04-07T10:08:35;5.77;;;5.27;;
15228;SDS011;7717;47.792;12.076;2023-04-07T10:11:02;6.67;;;5.80;;
15228;SDS011;7717;47.792;12.076;2023-04-07T10:13:29;6.23;;;5.63;;
15228;SDS011;7717;47.792;12.076;2023-04-07T10:15:58;7.10;;;5.80;;
15228;SDS011;7717;47.792;12.076;2023-04-07T10:18:30;7.13;;;5.80;;
15228;SDS011;7717;47.792;12.076;2023-04-07T10:21:01;6.83;;;5.93;;
15228;SDS011;7717;47.792;12.076;2023-04-07T10:23:31;8.20;;;6.20;;
15228;SDS011;7717;47.792;12.076;2023-04-07T10:26:04;7.97;;;5.67;;
15228;SDS011;7717;47.792;12.076;2023-04-07T10:28:32;7.23;;;5.77;;
15228;SDS011;7717;47.792;12.076;2023-04-07T10:31:01;6.77;;;6.17;;
15228;SDS011;7717;47.792;12.076;2023-04-07T10:33:47;6.67;;;5.50;;
15228;SDS011;7717;47.792;12.076;2023-04-07T10:36:17;6.67;;;5.60;;
15228;SDS011;7717;47.792;12.076;2023-04-07T10:44:00;6.27;;;5.67;;
15228;SDS011;7717;47.792;12.076;2023-04-07T10:49:11;5.90;;;5.30;;
15228;SDS011;7717;47.792;12.076;2023-04-07T10:51:40;5.60;;;5.10;;
15228;SDS011;7717;47.792;12.076;2023-04-07T10:54:19;5.40;;;4.90;;
15228;SDS011;7717;47.792;12.076;2023-04-07T10:59:27;6.10;;;5.50;;
15228;SDS011;7717;47.792;12.076;2023-04-07T11:02:39;5.27;;;4.77;;
15228;SDS011;7717;47.792;12.076;2023-04-07T11:04:48;7.20;;;5.70;;
15228;SDS011;7717;47.792;12.076;2023-04-07T11:07:14;5.07;;;4.67;;
15228;SDS011;7717;47.792;12.076;2023-04-07T11:09:40;4.73;;;4.33;;
15228;SDS011;7717;47.792;12.076;2023-04-07T11:12:06;6.60;;;5.87;;
15228;SDS011;7717;47.792;12.076;2023-04-07T11:14:32;6.60;;;6.00;;
15228;SDS011;7717;47.792;12.076;2023-04-07T11:16:59;6.70;;;6.10;;
15228;SDS011;7717;47.792;12.076;2023-04-07T11:19:27;6.03;;;5.47;;
15228;SDS011;7717;47.792;12.076;2023-04-07T11:24:37;5.37;;;4.97;;
15228;SDS011;7717;47.792;12.076;2023-04-07T11:27:03;4.63;;;4.23;;
15228;SDS011;7717;47.792;12.076;2023-04-07T11:29:32;5.40;;;4.90;;
15228;SDS011;7717;47.792;12.076;2023-04-07T11:31:59;4.37;;;4.00;;
15228;SDS011;7717;47.792;12.076;2023-04-07T11:34:33;5.10;;;4.60;;
15228;SDS011;7717;47.792;12.076;2023-04-07T11:39:53;4.53;;;4.13;;
15228;SDS011;7717;47.792;12.076;2023-04-07T11:44:57;4.77;;;4.27;;
15228;SDS011;7717;47.792;12.076;2023-04-07T11:47:32;4.50;;;4.17;;
15228;SDS011;7717;47.792;12.076;2023-04-07T11:50:01;5.13;;;4.67;;
15228;SDS011;7717;47.792;12.076;2023-04-07T11:52:27;4.80;;;4.40;;
15228;SDS011;7717;47.792;12.076;2023-04-07T11:54:52;4.80;;;4.30;;
15228;SDS011;7717;47.792;12.076;2023-04-07T11:57:24;4.60;;;4.20;;
15228;SDS011;7717;47.792;12.076;2023-04-07T11:59:50;6.20;;;4.80;;
15228;SDS011;7717;47.792;12.076;2023-04-07T12:02:30;5.23;;;4.80;;
15228;SDS011;7717;47.792;12.076;2023-04-07T12:04:57;5.30;;;4.90;;
15228;SDS011;7717;47.792;12.076;2023-04-07T12:07:22;5.50;;;5.00;;
15228;SDS011;7717;47.792;12.076;2023-04-07T12:09:48;5.17;;;4.67;;
15228;SDS011;7717;47.792;12.076;2023-04-07T12:12:13;5.27;;;4.77;;
15228;SDS011;7717;47.792;12.076;2023-04-07T12:14:48;4.60;;;4.03;;
15228;SDS011;7717;47.792;12.076;2023-04-07T12:17:26;5.13;;;4.60;;
15228;SDS011;7717;47.792;12.076;2023-04-07T12:19:52;4.50;;;4.20;;
15228;SDS011;7717;47.792;12.076;2023-04-07T12:22:18;5.07;;;4.60;;
15228;SDS011;7717;47.792;12.076;2023-04-07T12:24:43;4.53;;;4.13;;
15228;SDS011;7717;47.792;12.076;2023-04-07T12:27:09;4.70;;;4.13;;
15228;SDS011;7717;47.792;12.076;2023-04-07T12:29:35;4.53;;;4.13;;
15228;SDS011;7717;47.792;12.076;2023-04-07T12:32:04;4.80;;;4.40;;
15228;SDS011;7717;47.792;12.076;2023-04-07T12:34:30;5.70;;;5.00;;
15228;SDS011;7717;47.792;12.076;2023-04-07T12:36:55;4.53;;;4.07;;
15228;SDS011;7717;47.792;12.076;2023-04-07T12:39:21;4.27;;;3.97;;
15228;SDS011;7717;47.792;12.076;2023-04-07T12:41:46;5.10;;;4.60;;
15228;SDS011;7717;47.792;12.076;2023-04-07T12:44:12;5.53;;;4.47;;
15228;SDS011;7717;47.792;12.076;2023-04-07T12:46:38;4.47;;;4.17;;
15228;SDS011;7717;47.792;12.076;2023-04-07T12:49:03;4.80;;;4.37;;
15228;SDS011;7717;47.792;12.076;2023-04-07T12:51:29;4.50;;;4.10;;
15228;SDS011;7717;47.792;12.076;2023-04-07T12:53:57;4.50;;;4.10;;
15228;SDS011;7717;47.792;12.076;2023-04-07T12:56:22;5.30;;;4.00;;
15228;SDS011;7717;47.792;12.076;2023-04-07T12:58:48;4.10;;;3.70;;
15228;SDS011;7717;47.792;12.076;2023-04-07T13:01:16;4.60;;;3.90;;
15228;SDS011;7717;47.792;12.076;2023-04-07T13:03:41;4.60;;;4.10;;
15228;SDS011;7717;47.792;12.076;2023-04-07T13:06:07;4.80;;;4.30;;
15228;SDS011;7717;47.792;12.076;2023-04-07T13:08:32;7.27;;;6.57;;
15228;SDS011;7717;47.792;12.076;2023-04-07T13:10:57;5.60;;;5.07;;
15228;SDS011;7717;47.792;12.076;2023-04-07T13:13:23;4.83;;;4.40;;
15228;SDS011;7717;47.792;12.076;2023-04-07T13:15:48;3.73;;;2.37;;
15228;SDS011;7717;47.792;12.076;2023-04-07T13:18:14;3.90;;;3.60;;
15228;SDS011;7717;47.792;12.076;2023-04-07T13:20:39;5.40;;;3.60;;
15228;SDS011;7717;47.792;12.076;2023-04-07T13:23:05;4.20;;;3.80;;
15228;SDS011;7717;47.792;12.076;2023-04-07T13:25:31;4.10;;;3.70;;
15228;SDS011;7717;47.792;12.076;2023-04-07T13:27:56;4.20;;;3.80;;
15228;SDS011;7717;47.792;12.076;2023-04-07T13:30:21;4.20;;;3.80;;
15228;SDS011;7717;47.792;12.076;2023-04-07T13:32:47;3.87;;;3.57;;
15228;SDS011;7717;47.792;12.076;2023-04-07T13:35:15;4.20;;;3.90;;
15228;SDS011;7717;47.792;12.076;2023-04-07T13:37:41;4.50;;;4.07;;
15228;SDS011;7717;47.792;12.076;2023-04-07T13:40:07;4.50;;;3.50;;
15228;SDS011;7717;47.792;12.076;2023-04-07T13:42:33;5.30;;;4.10;;
15228;SDS011;7717;47.792;12.076;2023-04-07T13:44:58;3.50;;;3.27;;
15228;SDS011;7717;47.792;12.076;2023-04-07T13:47:23;4.30;;;3.90;;
15228;SDS011;7717;47.792;12.076;2023-04-07T13:49:49;4.83;;;4.30;;
15228;SDS011;7717;47.792;12.076;2023-04-07T13:52:16;3.97;;;3.57;;
15228;SDS011;7717;47.792;12.076;2023-04-07T13:54:42;4.63;;;3.43;;
15228;SDS011;7717;47.792;12.076;2023-04-07T13:57:08;3.87;;;3.57;;
15228;SDS011;7717;47.792;12.076;2023-04-07T13:59:33;4.30;;;3.90;;
15228;SDS011;7717;47.792;12.076;2023-04-07T14:01:59;4.20;;;3.90;;
15228;SDS011;7717;47.792;12.076;2023-04-07T14:04:24;3.70;;;3.40;;
15228;SDS011;7717;47.792;12.076;2023-04-07T14:06:50;4.20;;;3.80;;
15228;SDS011;7717;47.792;12.076;2023-04-07T14:09:15;4.43;;;4.03;;
15228;SDS011;7717;47.792;12.076;2023-04-07T14:11:40;4.73;;;3.73;;
15228;SDS011;7717;47.792;12.076;2023-04-07T14:14:06;6.27;;;4.33;;
15228;SDS011;7717;47.792;12.076;2023-04-07T14:16:31;9.73;;;8.90;;
15228;SDS011;7717;47.792;12.076;2023-04-07T14:18:57;5.20;;;4.00;;
15228;SDS011;7717;47.792;12.076;2023-04-07T14:21:22;3.80;;;3.50;;
15228;SDS011;7717;47.792;12.076;2023-04-07T14:23:48;3.60;;;3.30;;
15228;SDS011;7717;47.792;12.076;2023-04-07T14:26:13;4.23;;;3.87;;
15228;SDS011;7717;47.792;12.076;2023-04-07T14:28:40;4.10;;;3.23;;
15228;SDS011;7717;47.792;12.076;2023-04-07T14:31:05;3.80;;;3.43;;
15228;SDS011;7717;47.792;12.076;2023-04-07T14:33:31;3.87;;;3.53;;
15228;SDS011;7717;47.792;12.076;2023-04-07T14:35:56;3.20;;;3.00;;
15228;SDS011;7717;47.792;12.076;2023-04-07T14:38:22;4.10;;;3.70;;
15228;SDS011;7717;47.792;12.076;2023-04-07T14:40:50;4.07;;;3.70;;
15228;SDS011;7717;47.792;12.076;2023-04-07T14:43:16;4.03;;;3.63;;
15228;SDS011;7717;47.792;12.076;2023-04-07T14:45:42;4.10;;;3.60;;
15228;SDS011;7717;47.792;12.076;2023-04-07T14:48:07;5.53;;;3.93;;
15228;SDS011;7717;47.792;12.076;2023-04-07T14:50:33;5.00;;;3.53;;
15228;SDS011;7717;47.792;12.076;2023-04-07T14:52:59;4.10;;;3.80;;
15228;SDS011;7717;47.792;12.076;2023-04-07T14:55:25;3.67;;;3.37;;
15228;SDS011;7717;47.792;12.076;2023-04-07T14:57:50;3.60;;;3.37;;
15228;SDS011;7717;47.792;12.076;2023-04-07T15:00:15;3.73;;;3.43;;
15228;SDS011;7717;47.792;12.076;2023-04-07T15:02:41;3.50;;;3.20;;
15228;SDS011;7717;47.792;12.076;2023-04-07T15:05:07;5.97;;;3.57;;
15228;SDS011;7717;47.792;12.076;2023-04-07T15:07:32;3.93;;;3.63;;
15228;SDS011;7717;47.792;12.076;2023-04-07T15:09:58;4.17;;;3.43;;
15228;SDS011;7717;47.792;12.076;2023-04-07T15:12:24;4.53;;;4.13;;